createdAt,value
2022-10-26T00:01:07.684Z,91.82
2022-10-26T00:03:34.038Z,91.75
2022-10-26T00:06:00.295Z,94.48
2022-10-26T00:08:26.637Z,94.89
2022-10-26T00:10:52.882Z,94.28
2022-10-26T00:13:19.262Z,93.48
2022-10-26T00:15:45.511Z,93.69
2022-10-26T00:18:11.796Z,94.58
2022-10-26T00:20:38.047Z,93.82
2022-10-26T00:23:04.615Z,93.06
2022-10-26T00:25:30.877Z,92.61
2022-10-26T00:27:57.121Z,93.15
2022-10-26T00:30:23.368Z,92.92
2022-10-26T00:32:49.641Z,94.20
2022-10-26T00:35:24.111Z,94.04
2022-10-26T00:38:01.429Z,93.50
2022-10-26T00:40:27.685Z,91.85
2022-10-26T00:42:53.929Z,90.82
2022-10-26T00:45:20.239Z,91.42
2022-10-26T00:47:46.511Z,91.93
2022-10-26T00:50:12.774Z,92.40
2022-10-26T00:52:39.068Z,93.10
2022-10-26T00:55:05.323Z,95.31
2022-10-26T00:57:31.672Z,96.53
2022-10-26T00:59:58.096Z,95.33
2022-10-26T01:02:24.348Z,94.15
2022-10-26T01:04:50.642Z,93.50
2022-10-26T01:07:16.931Z,93.31
2022-10-26T01:09:46.874Z,93.23
2022-10-26T01:12:13.185Z,93.35
2022-10-26T01:14:39.436Z,94.24
2022-10-26T01:17:05.698Z,94.26
2022-10-26T01:19:31.946Z,93.58
2022-10-26T01:21:58.198Z,92.93
2022-10-26T01:24:24.460Z,92.04
2022-10-26T01:29:16.912Z,92.84
2022-10-26T01:31:43.253Z,92.67
2022-10-26T01:34:09.521Z,91.98
2022-10-26T01:36:35.760Z,91.89
2022-10-26T01:39:02.021Z,92.22
2022-10-26T01:41:28.332Z,92.28
2022-10-26T01:43:54.591Z,91.54
2022-10-26T01:46:20.843Z,91.67
2022-10-26T01:48:47.191Z,91.76
2022-10-26T01:51:13.440Z,91.79
2022-10-26T01:53:39.697Z,91.68
2022-10-26T01:56:05.958Z,90.71
2022-10-26T01:58:32.224Z,91.17
2022-10-26T02:00:58.479Z,92.01
2022-10-26T02:03:24.778Z,93.38
2022-10-26T02:05:51.091Z,94.40
2022-10-26T02:08:17.345Z,95.93
2022-10-26T02:10:43.607Z,95.55
2022-10-26T02:13:09.858Z,94.68
2022-10-26T02:15:36.120Z,94.44
2022-10-26T02:18:02.371Z,94.55
2022-10-26T02:20:28.628Z,94.07
2022-10-26T02:22:54.884Z,93.97
2022-10-26T02:25:21.340Z,94.84
2022-10-26T02:27:47.922Z,95.08
2022-10-26T02:30:14.450Z,95.19
2022-10-26T02:32:40.712Z,94.66
2022-10-26T02:35:06.970Z,94.45
2022-10-26T02:37:33.250Z,93.35
2022-10-26T02:39:59.530Z,93.31
2022-10-26T02:42:25.816Z,92.97
2022-10-26T02:44:52.080Z,93.80
2022-10-26T02:47:18.340Z,93.86
2022-10-26T02:49:44.587Z,93.47
2022-10-26T02:52:10.843Z,93.37
2022-10-26T02:54:37.097Z,93.36
2022-10-26T02:57:03.371Z,93.21
2022-10-26T02:59:29.842Z,93.82
2022-10-26T03:01:56.158Z,94.42
2022-10-26T03:04:22.514Z,94.48
2022-10-26T03:06:48.786Z,94.78
2022-10-26T03:09:15.043Z,94.38
2022-10-26T03:11:41.296Z,93.81
2022-10-26T03:14:07.556Z,94.51
2022-10-26T03:16:33.949Z,94.42
2022-10-26T03:19:00.196Z,94.04
2022-10-26T03:21:26.490Z,94.39
2022-10-26T03:23:52.752Z,94.66
2022-10-26T03:26:19.012Z,94.75
2022-10-26T03:28:45.292Z,94.60
2022-10-26T03:31:11.539Z,95.07
2022-10-26T03:36:08.953Z,95.42
2022-10-26T03:38:35.212Z,95.28
2022-10-26T03:41:01.467Z,94.85
2022-10-26T03:43:27.719Z,95.07
2022-10-26T03:45:53.967Z,94.57
2022-10-26T03:48:20.245Z,94.59
2022-10-26T03:50:46.486Z,94.68
2022-10-26T03:53:12.767Z,94.69
2022-10-26T03:55:39.018Z,94.47
2022-10-26T03:58:05.275Z,94.76
2022-10-26T04:00:31.583Z,94.61
2022-10-26T04:02:57.844Z,94.60
2022-10-26T04:05:24.096Z,94.42
2022-10-26T04:07:50.490Z,94.73
2022-10-26T04:10:17.072Z,94.69
2022-10-26T04:12:43.314Z,95.01
2022-10-26T04:15:10.070Z,94.84
2022-10-26T04:17:36.331Z,94.90
2022-10-26T04:20:02.620Z,94.66
2022-10-26T04:22:28.940Z,94.61
2022-10-26T04:24:55.188Z,94.41
2022-10-26T04:27:21.453Z,95.78
2022-10-26T04:29:47.708Z,95.64
2022-10-26T04:32:13.953Z,95.56
2022-10-26T04:34:40.204Z,95.36
2022-10-26T04:37:06.605Z,96.49
2022-10-26T04:39:32.855Z,96.24
2022-10-26T04:41:59.120Z,95.72
2022-10-26T04:44:25.372Z,95.71
2022-10-26T04:46:51.649Z,95.54
2022-10-26T04:49:17.908Z,95.82
2022-10-26T04:51:44.168Z,96.72
2022-10-26T04:54:10.490Z,96.60
2022-10-26T04:56:36.793Z,96.26
2022-10-26T04:59:03.068Z,95.68
2022-10-26T05:01:29.458Z,95.64
2022-10-26T05:03:56.012Z,97.23
2022-10-26T05:06:22.265Z,97.55
2022-10-26T05:08:48.552Z,97.65
2022-10-26T05:11:14.835Z,97.33
2022-10-26T05:13:41.120Z,97.81
2022-10-26T05:16:10.443Z,96.90
2022-10-26T05:18:36.682Z,97.17
2022-10-26T05:21:02.942Z,97.52
2022-10-26T05:23:29.180Z,97.65
2022-10-26T05:25:55.650Z,97.36
2022-10-26T05:28:21.900Z,97.49
2022-10-26T05:30:48.227Z,97.46
2022-10-26T05:33:14.503Z,97.21
2022-10-26T05:35:40.775Z,97.08
2022-10-26T05:38:07.022Z,98.24
2022-10-26T05:40:33.295Z,99.26
2022-10-26T05:42:59.571Z,99.36
2022-10-26T05:45:25.819Z,98.95
2022-10-26T05:47:52.627Z,98.69
2022-10-26T05:50:19.095Z,98.53
2022-10-26T05:52:45.398Z,98.41
2022-10-26T05:55:11.678Z,98.66
2022-10-26T05:57:37.941Z,98.77
2022-10-26T06:00:04.183Z,98.57
2022-10-26T06:02:30.557Z,97.71
2022-10-26T06:04:56.867Z,97.67
2022-10-26T06:07:23.111Z,97.39
2022-10-26T06:09:49.358Z,97.20
2022-10-26T06:12:18.521Z,97.59
2022-10-26T06:14:46.084Z,96.91
2022-10-26T06:17:12.335Z,97.38
2022-10-26T06:19:38.613Z,97.44
2022-10-26T06:22:04.880Z,97.23
2022-10-26T06:24:31.171Z,98.17
2022-10-26T06:26:57.448Z,98.11
2022-10-26T06:29:24.726Z,98.74
2022-10-26T06:31:51.034Z,99.42
2022-10-26T06:34:17.469Z,99.95
2022-10-26T06:36:43.783Z,99.61
2022-10-26T06:39:10.167Z,99.09
2022-10-26T06:41:36.450Z,98.35
2022-10-26T06:44:02.883Z,98.12
2022-10-26T06:46:29.186Z,97.98
2022-10-26T06:48:55.424Z,98.13
2022-10-26T06:51:21.740Z,98.04
2022-10-26T06:53:47.991Z,97.07
2022-10-26T06:56:14.245Z,96.17
2022-10-26T06:58:40.490Z,96.06
2022-10-26T07:01:06.845Z,95.54
2022-10-26T07:03:33.209Z,95.15
2022-10-26T07:05:59.621Z,94.66
2022-10-26T07:08:25.932Z,94.46
2022-10-26T07:10:52.314Z,93.67
2022-10-26T07:13:18.639Z,93.73
2022-10-26T07:15:45.103Z,94.04
2022-10-26T07:18:11.415Z,93.77
2022-10-26T07:20:37.831Z,92.78
2022-10-26T07:23:06.792Z,92.50
2022-10-26T07:25:33.048Z,92.16
2022-10-26T07:27:59.433Z,92.25
2022-10-26T07:30:25.850Z,91.75
2022-10-26T07:32:52.341Z,91.15
2022-10-26T07:35:18.694Z,90.93
2022-10-26T07:37:44.943Z,90.64
2022-10-26T07:40:11.310Z,91.49
2022-10-26T07:42:37.639Z,91.75
2022-10-26T07:45:03.891Z,92.35
2022-10-26T07:47:30.146Z,91.84
2022-10-26T07:49:56.455Z,92.31
2022-10-26T07:52:22.703Z,93.12
2022-10-26T07:54:48.992Z,92.71
2022-10-26T07:57:15.244Z,93.03
2022-10-26T07:59:41.694Z,92.19
2022-10-26T08:02:08.039Z,92.55
2022-10-26T08:04:34.376Z,92.50
2022-10-26T08:07:00.672Z,93.09
2022-10-26T08:09:27.028Z,93.19
2022-10-26T08:11:53.288Z,93.09
2022-10-26T08:14:19.537Z,93.03
2022-10-26T08:16:45.933Z,92.68
2022-10-26T08:19:12.230Z,92.92
2022-10-26T08:21:40.396Z,92.08
2022-10-26T08:24:06.923Z,91.46
2022-10-26T08:26:33.220Z,90.40
2022-10-26T08:28:59.512Z,90.61
2022-10-26T08:31:26.753Z,91.08
2022-10-26T08:33:53.004Z,90.84
2022-10-26T08:36:20.070Z,89.33
2022-10-26T08:38:46.299Z,89.02
2022-10-26T08:41:12.606Z,89.07
2022-10-26T08:43:39.360Z,88.50
2022-10-26T08:46:05.641Z,88.28
2022-10-26T08:48:31.917Z,87.26
2022-10-26T08:50:58.217Z,86.96
2022-10-26T08:53:24.477Z,86.38
2022-10-26T08:55:50.735Z,86.14
2022-10-26T08:58:17.008Z,86.05
2022-10-26T09:00:43.308Z,85.18
2022-10-26T09:03:09.583Z,84.45
2022-10-26T09:05:36.888Z,84.68
2022-10-26T09:08:03.380Z,84.80
2022-10-26T09:10:30.513Z,84.69
2022-10-26T09:12:56.695Z,85.71
2022-10-26T09:15:22.957Z,84.87
2022-10-26T09:17:49.464Z,84.55
2022-10-26T09:20:15.717Z,83.19
2022-10-26T09:22:42.005Z,82.86
2022-10-26T09:25:08.257Z,83.16
2022-10-26T09:27:34.519Z,82.98
2022-10-26T09:30:00.784Z,83.72
2022-10-26T09:32:27.049Z,83.83
2022-10-26T09:34:53.356Z,84.11
2022-10-26T09:37:19.614Z,83.92
2022-10-26T09:39:45.880Z,83.62
2022-10-26T09:42:12.131Z,83.90
2022-10-26T09:44:38.396Z,84.46
2022-10-26T09:47:04.814Z,84.23
2022-10-26T09:49:32.924Z,84.18
2022-10-26T09:51:59.248Z,83.46
2022-10-26T09:54:25.518Z,83.84
2022-10-26T09:56:51.775Z,83.34
2022-10-26T09:59:18.032Z,82.28
2022-10-26T10:01:44.323Z,82.80
2022-10-26T10:04:11.547Z,82.17
2022-10-26T10:06:37.838Z,81.92
2022-10-26T10:09:04.175Z,81.62
2022-10-26T10:11:30.452Z,81.38
2022-10-26T10:13:56.707Z,81.51
2022-10-26T10:16:22.959Z,81.27
2022-10-26T10:18:49.233Z,80.31
2022-10-26T10:21:15.510Z,79.75
2022-10-26T10:23:41.774Z,79.28
2022-10-26T10:26:08.137Z,78.95
2022-10-26T10:28:34.441Z,79.21
2022-10-26T10:31:00.706Z,77.71
2022-10-26T10:33:26.997Z,78.19
2022-10-26T10:35:53.299Z,78.08
2022-10-26T10:38:19.559Z,78.06
2022-10-26T10:40:45.812Z,77.73
2022-10-26T10:43:12.452Z,77.35
2022-10-26T10:45:38.707Z,77.15
2022-10-26T10:48:05.175Z,77.07
2022-10-26T10:50:31.443Z,76.68
2022-10-26T10:52:57.999Z,75.45
2022-10-26T10:55:24.253Z,75.72
2022-10-26T10:57:50.729Z,75.46
2022-10-26T11:00:17.125Z,75.86
2022-10-26T11:02:43.457Z,75.28
2022-10-26T11:05:11.957Z,74.63
2022-10-26T11:07:38.213Z,74.95
2022-10-26T11:10:04.463Z,74.55
2022-10-26T11:12:30.786Z,73.92
2022-10-26T11:14:57.092Z,72.55
2022-10-26T11:17:23.350Z,72.56
2022-10-26T11:19:49.791Z,72.51
2022-10-26T11:22:16.096Z,72.36
2022-10-26T11:24:42.346Z,71.30
2022-10-26T11:27:08.626Z,70.61
2022-10-26T11:29:38.190Z,70.26
2022-10-26T11:32:06.027Z,69.79
2022-10-26T11:34:32.284Z,69.91
2022-10-26T11:36:58.549Z,69.09
2022-10-26T11:39:24.808Z,68.61
2022-10-26T11:41:51.100Z,68.09
2022-10-26T11:44:17.372Z,67.86
2022-10-26T11:46:43.658Z,68.59
2022-10-26T11:49:09.935Z,67.62
2022-10-26T11:51:36.223Z,67.25
2022-10-26T11:54:02.471Z,66.55
2022-10-26T11:56:28.736Z,67.39
2022-10-26T11:58:55.257Z,67.67
2022-10-26T12:01:21.568Z,67.75
2022-10-26T12:03:47.970Z,67.69
2022-10-26T12:06:14.231Z,67.22
2022-10-26T12:08:43.615Z,66.68
2022-10-26T12:11:09.882Z,65.84
2022-10-26T12:13:36.153Z,65.43
2022-10-26T12:16:03.973Z,65.85
2022-10-26T12:18:50.180Z,64.53
2022-10-26T12:21:17.139Z,64.79
2022-10-26T12:23:51.379Z,63.10
2022-10-26T12:26:18.013Z,62.99
2022-10-26T12:28:44.318Z,63.18
2022-10-26T12:31:10.579Z,62.32
2022-10-26T12:33:36.835Z,63.68
2022-10-26T12:36:03.151Z,63.63
2022-10-26T12:38:32.954Z,65.08
2022-10-26T12:41:00.018Z,64.41
2022-10-26T12:43:26.274Z,64.09
2022-10-26T12:45:52.572Z,65.44
2022-10-26T12:48:27.532Z,63.21
2022-10-26T12:51:04.662Z,64.69
2022-10-26T12:53:30.928Z,64.43
2022-10-26T12:55:57.254Z,65.22
2022-10-26T12:58:23.537Z,64.28
2022-10-26T13:00:49.875Z,65.00
2022-10-26T13:03:16.145Z,66.20
2022-10-26T13:05:42.412Z,66.71
2022-10-26T13:08:08.968Z,66.68
2022-10-26T13:10:35.237Z,65.95
2022-10-26T13:13:01.554Z,66.40
2022-10-26T13:15:27.880Z,66.79
2022-10-26T13:17:54.135Z,67.37
2022-10-26T13:20:20.391Z,67.29
2022-10-26T13:22:46.852Z,67.35
2022-10-26T13:25:13.224Z,67.15
2022-10-26T13:27:39.515Z,66.47
2022-10-26T13:30:05.775Z,67.14
2022-10-26T13:32:32.050Z,67.39
2022-10-26T13:34:58.316Z,66.59
2022-10-26T13:37:24.588Z,66.19
2022-10-26T13:39:55.630Z,67.20
2022-10-26T13:42:21.919Z,67.87
2022-10-26T13:44:48.423Z,68.63
2022-10-26T13:47:14.691Z,68.58
2022-10-26T13:49:40.957Z,68.79
2022-10-26T13:52:07.231Z,68.64
2022-10-26T13:54:33.691Z,68.67
2022-10-26T13:57:00.167Z,68.69
2022-10-26T13:59:26.421Z,69.19
2022-10-26T14:01:52.744Z,69.43
2022-10-26T14:04:19.055Z,69.40
2022-10-26T14:06:45.354Z,69.71
2022-10-26T14:09:11.621Z,69.13
2022-10-26T14:11:37.884Z,69.53
2022-10-26T14:14:04.258Z,68.59
2022-10-26T14:16:30.503Z,68.79
2022-10-26T14:18:56.776Z,69.07
2022-10-26T14:21:23.061Z,69.43
2022-10-26T14:23:49.901Z,69.76
2022-10-26T14:26:20.137Z,69.64
2022-10-26T14:28:46.559Z,70.22
2022-10-26T14:31:16.470Z,70.25
2022-10-26T14:33:45.720Z,69.57
2022-10-26T14:36:12.232Z,69.51
2022-10-26T14:38:38.548Z,69.98
2022-10-26T14:41:04.830Z,70.38
2022-10-26T14:43:31.152Z,70.75
2022-10-26T14:45:57.438Z,70.87
2022-10-26T14:48:23.919Z,70.49
2022-10-26T14:50:50.180Z,70.63
2022-10-26T14:53:16.491Z,70.97
2022-10-26T14:55:42.773Z,70.96
2022-10-26T14:58:09.141Z,71.01
2022-10-26T15:00:35.520Z,70.79
2022-10-26T15:03:01.832Z,71.01
2022-10-26T15:05:35.663Z,71.03
2022-10-26T15:08:03.135Z,71.28
2022-10-26T15:10:29.345Z,71.52
2022-10-26T15:12:55.613Z,71.55
2022-10-26T15:17:48.447Z,71.50
2022-10-26T15:20:14.860Z,71.81
2022-10-26T15:22:41.287Z,72.12
2022-10-26T15:25:07.570Z,72.24
2022-10-26T15:27:34.712Z,72.58
2022-10-26T15:30:01.000Z,72.76
2022-10-26T15:32:27.287Z,72.87
2022-10-26T15:34:53.536Z,72.65
2022-10-26T15:37:19.835Z,73.01
2022-10-26T15:39:46.125Z,73.10
2022-10-26T15:42:12.374Z,72.90
2022-10-26T15:44:38.637Z,72.96
2022-10-26T15:47:08.690Z,73.30
2022-10-26T15:49:35.183Z,73.47
2022-10-26T15:52:01.734Z,73.40
2022-10-26T15:54:28.080Z,73.42
2022-10-26T15:56:54.508Z,73.55
2022-10-26T15:59:21.387Z,73.73
2022-10-26T16:01:47.729Z,73.99
2022-10-26T16:04:14.203Z,73.87
2022-10-26T16:06:40.487Z,74.01
2022-10-26T16:09:06.863Z,74.17
2022-10-26T16:11:33.202Z,74.47
2022-10-26T16:14:03.853Z,74.44
2022-10-26T16:16:30.554Z,74.34
2022-10-26T16:19:11.850Z,74.27
2022-10-26T16:21:43.113Z,74.51
2022-10-26T16:24:09.390Z,74.60
2022-10-26T16:26:35.714Z,74.96
2022-10-26T16:29:01.974Z,74.82
2022-10-26T16:31:28.243Z,74.65
2022-10-26T16:33:54.501Z,74.89
2022-10-26T16:36:21.089Z,74.78
2022-10-26T16:38:47.359Z,74.33
2022-10-26T16:41:13.839Z,74.82
2022-10-26T16:43:40.175Z,74.58
2022-10-26T16:46:06.802Z,74.90
2022-10-26T16:48:33.088Z,74.74
2022-10-26T16:50:59.341Z,74.94
2022-10-26T16:53:25.601Z,75.09
2022-10-26T16:55:51.855Z,75.10
2022-10-26T16:58:18.115Z,74.95
2022-10-26T17:00:44.376Z,75.23
2022-10-26T17:03:10.665Z,75.43
2022-10-26T17:05:36.926Z,75.39
2022-10-26T17:08:03.192Z,75.54
2022-10-26T17:10:29.477Z,75.62
2022-10-26T17:12:55.751Z,75.59
2022-10-26T17:15:25.321Z,75.42
2022-10-26T17:17:54.772Z,75.85
2022-10-26T17:20:21.035Z,75.73
2022-10-26T17:22:47.523Z,75.94
2022-10-26T17:25:14.014Z,76.17
2022-10-26T17:27:44.800Z,76.14
2022-10-26T17:30:13.732Z,76.24
2022-10-26T17:32:40.000Z,76.11
2022-10-26T17:35:06.268Z,76.02
2022-10-26T17:37:32.705Z,76.27
2022-10-26T17:39:58.978Z,76.34
2022-10-26T17:42:25.248Z,76.30
2022-10-26T17:44:51.507Z,76.48
2022-10-26T17:47:17.761Z,76.56
2022-10-26T17:49:44.056Z,76.42
2022-10-26T17:52:11.500Z,76.61
2022-10-26T17:54:37.762Z,76.40
2022-10-26T17:57:04.212Z,76.53
2022-10-26T17:59:30.471Z,76.54
2022-10-26T18:01:57.108Z,76.53
2022-10-26T18:04:23.455Z,76.66
2022-10-26T18:06:49.736Z,77.00
2022-10-26T18:09:16.038Z,76.98
2022-10-26T18:11:42.384Z,76.87
2022-10-26T18:14:08.675Z,77.08
2022-10-26T18:16:34.947Z,77.03
2022-10-26T18:19:01.743Z,77.28
2022-10-26T18:21:28.170Z,77.30
2022-10-26T18:23:54.489Z,77.28
2022-10-26T18:26:20.746Z,77.49
2022-10-26T18:28:47.040Z,77.62
2022-10-26T18:31:13.291Z,77.43
2022-10-26T18:33:39.552Z,77.72
2022-10-26T18:36:05.828Z,77.84
2022-10-26T18:38:32.126Z,77.68
2022-10-26T18:40:58.487Z,78.07
2022-10-26T18:43:24.734Z,78.21
2022-10-26T18:45:50.995Z,78.28
2022-10-26T18:48:17.269Z,78.10
2022-10-26T18:50:43.670Z,78.54
2022-10-26T18:53:13.288Z,78.81
2022-10-26T18:55:41.163Z,78.87
2022-10-26T18:58:10.587Z,78.54
2022-10-26T19:00:36.907Z,78.74
2022-10-26T19:03:04.563Z,78.75
2022-10-26T19:05:30.823Z,78.83
2022-10-26T19:07:57.075Z,78.78
2022-10-26T19:10:23.418Z,79.13
2022-10-26T19:12:50.082Z,79.19
2022-10-26T19:15:16.746Z,80.30
2022-10-26T19:17:42.999Z,80.67
2022-10-26T19:20:12.715Z,80.77
2022-10-26T19:22:38.968Z,80.77
2022-10-26T19:25:05.228Z,80.65
2022-10-26T19:27:31.496Z,80.57
2022-10-26T19:29:58.000Z,80.43
2022-10-26T19:32:24.258Z,80.71
2022-10-26T19:34:50.532Z,80.81
2022-10-26T19:37:16.943Z,80.96
2022-10-26T19:39:43.303Z,80.81
2022-10-26T19:42:09.626Z,81.06
2022-10-26T19:44:35.879Z,81.56
2022-10-26T19:47:02.302Z,81.77
2022-10-26T19:49:28.557Z,81.97
2022-10-26T19:51:59.484Z,82.18
2022-10-26T19:54:25.740Z,82.04
2022-10-26T19:56:53.782Z,82.46
2022-10-26T19:59:19.955Z,82.23
2022-10-26T20:01:46.320Z,83.00
2022-10-26T20:04:13.179Z,82.97
2022-10-26T20:06:39.433Z,82.91
2022-10-26T20:09:05.837Z,83.08
2022-10-26T20:11:32.403Z,83.27
2022-10-26T20:13:58.881Z,83.48
2022-10-26T20:16:25.145Z,83.73
2022-10-26T20:18:51.477Z,83.93
2022-10-26T20:21:17.847Z,84.07
2022-10-26T20:23:44.209Z,84.27
2022-10-26T20:26:16.433Z,84.65
2022-10-26T20:28:46.321Z,84.27
2022-10-26T20:31:12.588Z,84.50
2022-10-26T20:33:38.882Z,84.24
2022-10-26T20:36:05.132Z,84.68
2022-10-26T20:38:31.462Z,85.52
2022-10-26T20:40:57.747Z,85.45
2022-10-26T20:43:24.004Z,85.45
2022-10-26T20:45:50.272Z,85.59
2022-10-26T20:48:16.550Z,85.47
2022-10-26T20:50:42.840Z,85.28
2022-10-26T20:53:09.227Z,85.40
2022-10-26T20:55:35.534Z,85.35
2022-10-26T20:58:01.791Z,85.85
2022-10-26T21:00:28.063Z,85.92
2022-10-26T21:02:54.306Z,85.95
2022-10-26T21:05:21.138Z,85.97
2022-10-26T21:07:47.436Z,86.08
2022-10-26T21:10:13.843Z,85.98
2022-10-26T21:12:40.966Z,85.66
2022-10-26T21:15:07.150Z,85.72
2022-10-26T21:17:34.373Z,85.87
2022-10-26T21:20:00.625Z,85.98
2022-10-26T21:22:26.879Z,86.42
2022-10-26T21:24:53.144Z,87.19
2022-10-26T21:27:19.408Z,87.34
2022-10-26T21:29:45.673Z,87.80
2022-10-26T21:32:11.922Z,87.24
2022-10-26T21:34:38.181Z,87.82
2022-10-26T21:37:04.421Z,87.86
2022-10-26T21:39:30.667Z,87.69
2022-10-26T21:41:56.920Z,88.41
2022-10-26T21:44:38.719Z,88.36
2022-10-26T21:47:08.057Z,88.08
2022-10-26T21:49:34.504Z,88.65
2022-10-26T21:52:00.807Z,88.59
2022-10-26T21:54:27.079Z,88.92
2022-10-26T21:56:53.329Z,88.87
2022-10-26T21:59:19.646Z,88.90
2022-10-26T22:01:45.940Z,89.11
2022-10-26T22:04:12.395Z,88.80
2022-10-26T22:06:38.656Z,89.84
2022-10-26T22:09:04.954Z,90.14
2022-10-26T22:11:31.647Z,90.31
2022-10-26T22:13:57.907Z,90.19
2022-10-26T22:16:24.185Z,89.37
2022-10-26T22:18:50.443Z,91.00
2022-10-26T22:21:16.708Z,91.65
2022-10-26T22:23:42.971Z,91.71
2022-10-26T22:26:09.215Z,91.46
2022-10-26T22:28:42.463Z,91.38
2022-10-26T22:31:09.298Z,91.28
2022-10-26T22:33:35.536Z,91.79
2022-10-26T22:36:01.782Z,91.44
2022-10-26T22:38:28.023Z,92.93
2022-10-26T22:40:54.855Z,93.47
2022-10-26T22:43:21.211Z,93.38
2022-10-26T22:45:47.454Z,93.20
2022-10-26T22:48:13.714Z,93.40
2022-10-26T22:50:39.993Z,93.47
2022-10-26T22:53:06.259Z,93.75
2022-10-26T22:55:32.515Z,92.93
2022-10-26T22:57:58.759Z,92.36
2022-10-26T23:00:26.688Z,92.05
2022-10-26T23:02:53.167Z,91.62
2022-10-26T23:05:19.428Z,91.56
2022-10-26T23:07:45.848Z,91.65
2022-10-26T23:10:12.116Z,91.91
2022-10-26T23:12:38.354Z,92.09
2022-10-26T23:15:06.437Z,93.46
2022-10-26T23:17:32.605Z,92.75
2022-10-26T23:19:58.862Z,93.89
2022-10-26T23:22:25.110Z,93.42
2022-10-26T23:24:51.371Z,94.06
2022-10-26T23:27:17.626Z,94.01
2022-10-26T23:32:15.046Z,95.84
2022-10-26T23:34:41.371Z,94.73
2022-10-26T23:37:07.626Z,93.44
2022-10-26T23:39:33.997Z,94.28
2022-10-26T23:42:00.250Z,93.18
2022-10-26T23:44:26.506Z,93.29
2022-10-26T23:46:52.760Z,92.65
2022-10-26T23:49:19.034Z,93.14
2022-10-26T23:51:45.314Z,93.13
2022-10-26T23:54:11.582Z,93.11
2022-10-26T23:56:37.831Z,92.57
2022-10-26T23:59:07.459Z,92.24
